Nearby METAR Reports


KSYR - Syracuse, New York, USA
Distance from station: SE 5mi, 8km
Updated: Wed, 18-Jan-2017 6:54am EST
Light rain, Mist, Overcast
Light rain, Mist, Overcast
 Wind from calm
Wind: Calm
Temperature: 34°F , 1°C
Dew Point: 34°F , 1°C
Humidity: 100%
Barometer: 29.88 inHg , 1011.9 hPa
Summary: Light rain, Mist
Clouds: Overcast
Visibility: 4 miles , 6 km
Cloud details: Overcast 600 ft
2017/01/18 11:54 KSYR 181154Z 00000KT 4SM -RA BR OVC006 01/01 A2988 RMK AO2 SLP118 P0003 60007 70101 T00110011 10028 20011 53017 $
KFZY - Fulton, New York, USA
Distance from station: NW 17mi, 27km
Updated: Wed, 18-Jan-2017 6:54am EST
Mist, Overcast
Mist, Overcast
 Wind from W
Wind: W 6 mph , 9 km/h
Temperature: 37°F , 3°C
Wind Chill: 32°F , 0°C
Dew Point: 37°F , 3°C
Humidity: 100%
Barometer: 29.88 inHg , 1011.9 hPa
Summary: Mist
Clouds: Overcast
Visibility: 4 miles , 6 km
Cloud details: Overcast 300 ft
2017/01/18 11:54 KFZY 181154Z AUTO 28005KT 4SM BR OVC003 03/03 A2988 RMK AO2 RAB19E36 SLP122 P0000 60007 70076 T00330028 10039 20022 53019 $
 
KRME - Rome/Griffiss Af, New York, USA
Distance from station: E 39mi, 62km
Updated: Wed, 18-Jan-2017 6:53am EST
Light rain, Mist, Overcast
Light rain, Mist, Overcast
 Wind from E
Wind: E 6 mph , 9 km/h
Temperature: 34°F , 1°C
Wind Chill: 29°F , -2°C
Dew Point: 34°F , 1°C
Humidity: 100%
Barometer: 29.90 inHg , 1012.5 hPa
Summary: Light rain, Mist
Clouds: Overcast
Visibility: 3 miles , 5 km
Cloud details: Mostly cloudy 500 ft
Overcast 1100 ft
2017/01/18 11:53 KRME 181153Z 10005KT 3SM -RA BR BKN005 OVC011 01/01 A2990 RMK AO2 RAE19B47 SLP129 P0001 60013 70081 T00110011 10011 20011 50008
KITH - Ithaca/Tompkins, New York, USA
Distance from station: SSW 51mi, 82km
Updated: Wed, 18-Jan-2017 6:56am EST
Light rain, Mist, Overcast
Light rain, Mist, Overcast
 Wind from calm
Wind: Calm
Temperature: 37°F , 3°C
Dew Point: 37°F , 3°C
Humidity: 100%
Barometer: 29.87 inHg , 1011.5 hPa
Summary: Light rain, Mist
Clouds: Overcast
Visibility: 5 miles , 8 km
Cloud details: Mostly cloudy 600 ft
Overcast 1400 ft
2017/01/18 11:56 KITH 181156Z 00000KT 5SM -RA BR BKN006 OVC014 03/03 A2987 RMK AO2 SLP125 P0002 60009 70061 T00330028 10033 20028 53011
 
KART - Watertown, New York, USA
Distance from station: N 56mi, 91km
Updated: Wed, 18-Jan-2017 6:16am EST
Light rain, Mist, Overcast
Light rain, Mist, Overcast
 Wind from SSW
Wind: SSW 8 mph , 13 km/h, Gust: 20 mph , 31 km/h
Temperature: 37°F , 3°C
Wind Chill: 31°F , -1°C
Dew Point: 37°F , 3°C
Humidity: 100%
Barometer: 29.83 inHg , 1010.2 hPa
Summary: Light rain, Mist
Clouds: Overcast
Visibility: 4 miles , 6 km
Cloud details: Mostly cloudy 800 ft
Overcast 1200 ft
2017/01/18 11:16 KART 181116Z AUTO 20007G17KT 4SM -RA BR BKN008 OVC012 03/03 A2983 RMK AO2 P0000 T00330033 $
KPEO - Penn Yan, New York, USA
Distance from station: SW 58mi, 93km
Updated: Wed, 18-Jan-2017 6:53am EST
Overcast
Overcast
 Wind from W
Wind: W 12 mph , 19 km/h, Gust: 16 mph , 26 km/h
Temperature: 43°F , 6°C
Wind Chill: 37°F , 3°C
Dew Point: 34°F , 1°C
Humidity: 71%
Barometer: 29.87 inHg , 1011.5 hPa
Clouds: Overcast
Visibility: 10 miles , 16 km
Cloud details: Overcast 2200 ft
2017/01/18 11:53 KPEO 181153Z AUTO 27010G14KT 10SM OVC022 06/01 A2987 RMK AO2 RAB33E51 SLP121 P0000 60000 70035 T00560006 10061 20039 53017
 
KGTB - Fort Drum/Wheele, New York, USA
Distance from station: NNE 64mi, 102km
Updated: Wed, 18-Jan-2017 6:27am EST
Overcast
Overcast
 Wind from SSE
Wind: SSE 12 mph , 19 km/h
Temperature: 36°F , 2°C
Wind Chill: 28°F , -2°C
Dew Point: 32°F , 0°C
Humidity: 87%
Barometer: 29.82 inHg , 1009.8 hPa
Clouds: Overcast
Visibility: 10 miles , 16 km
Cloud details: Overcast 900 ft
2017/01/18 11:27 KGTB 181127Z AUTO 15010KT 10SM OVC009 02/00 A2982 RMK AO2 RAE00DZB00E02
CWQP - Point Petre (mar, Ontario, Canada
Distance from station: NW 67mi, 107km
Updated: Wed, 18-Jan-2017 6:00am EST

 Wind from NW
Wind: NW 7 mph , 11 km/h
Temperature: 32°F , 0°C
Wind Chill: 25°F , -4°C
Dew Point: 34°F , 1°C
Humidity: 107%
2017/01/18 11:00 CWQP 181100Z AUTO 32006KT M00/01 RMK AO1 SOG 00 3024 SLP116 T10010005
 
KBGM - Binghamton, New York, USA
Distance from station: S 67mi, 107km
Updated: Wed, 18-Jan-2017 6:56am EST
Fog, Overcast
Fog, Overcast
 Wind from S
Wind: S 5 mph , 7 km/h
Temperature: 34°F , 1°C
Wind Chill: 29°F , -2°C
Dew Point: 34°F , 1°C
Humidity: 100%
Barometer: 29.85 inHg , 1010.8 hPa
Summary: Fog
Clouds: Overcast
Visibility: 1/2 mile , 2 km
Cloud details: Overcast 500 ft
2017/01/18 11:56 KBGM 181156Z 19004KT 1/2SM FG VV005 01/01 A2985 RMK AO2 T00060006
CYGK - Kingston Arpt (m, Ontario, Canada
Distance from station: NNW 75mi, 121km
Updated: Wed, 18-Jan-2017 6:40am EST
Light freezing, Drizzle, Overcast
Light freezing, Drizzle, Overcast
 Wind from NNW
Wind: NNW 9 mph , 15 km/h
Temperature: 32°F , 0°C
Wind Chill: 24°F , -4°C
Dew Point: 30°F , -1°C
Humidity: 93%
Barometer: 29.84 inHg , 1010.5 hPa
Summary: Light freezing, Drizzle
Clouds: Overcast
Visibility: 8 miles , 13 km
Cloud details: Overcast 500 ft
2017/01/18 11:40 CYGK 181140Z 34008KT 8SM -FZDZ OVC005 M00/M01 A2984 RMK NS8 SLP112